Forside
METAR-TAF:

METAR-TAF

Lufthavne :

Kasuminome, Japan

Breddekreds: 38-14N, længdekreds: 140-55E, højde: 7 m

Aktuelle vejr

Denne rapport blev lavet for 5 timer og 12 minutter siden, kl. 03:47 UTC
Vind 4 kt fra nord
Temperatur 6°C
Fugtighed 61%
Tryk 1017 hPa
Sigt 10 km eller mere
Nogle få skyer i en højde af 2000 ft
Brudte skyer i en højde af 5000 ft

METAR: RJSU 270347Z 01004KT 9999 FEW020 BKN050 06/M01 Q1017 RMK 1CU020 5CU050 A3004

Tid: 17:59 (08:59 UTC)


TAF: fraværende

Vejrobservationer og prognoser fra mere end 4000 lufthavne (METAR og TAF).

De gule og røde prikker repræsenterer de meteorologiske stationer.

Flyt musen over at se navnet på stationen.

Så klik over at se vejr observationer og prognoser.

At skifte det kort: Klik på de grønne knapper med et sort kors for at zoome ind; på den grønne knap med en bindestreg for at zoome ud; eller på de grønne pile for tilstødende kort.


METAR-TAF: